Time;durP1;ratioP1;P1;durP2;ratioP2;P2;SDS_P1;SDS_P2;PMS_P1;PMS_P2;Temp;Humidity;BMP_temperature;BMP_pressure;BME280_temperature;BME280_humidity;BME280_pressure;Samples;Min_cycle;Max_cycle;Signal;HPM_P1;HPM_P2
2021/05/05 00:02:28;;;;;;;2.40;2.20;;;15.30;30.80;;;;;;10466372;28;20308;-74
2021/05/05 00:07:30;;;;;;;2.70;2.50;;;15.30;30.60;;;;;;10468406;28;20221;-74
2021/05/05 00:12:35;;;;;;;2.50;2.30;;;15.30;30.50;;;;;;10473873;28;20226;-74
2021/05/05 00:17:37;;;;;;;2.57;2.30;;;15.30;30.90;;;;;;10473793;28;20311;-74
2021/05/05 00:22:39;;;;;;;2.60;2.40;;;15.30;30.70;;;;;;10470806;28;20255;-70
2021/05/05 00:27:42;;;;;;;2.33;2.23;;;15.20;30.70;;;;;;10483007;28;20241;-70
2021/05/05 00:32:45;;;;;;;2.77;2.57;;;15.20;31.10;;;;;;10464341;28;20231;-69
2021/05/05 00:37:47;;;;;;;2.70;2.50;;;15.20;30.90;;;;;;10475260;28;20279;-70
2021/05/05 00:42:50;;;;;;;2.77;2.57;;;15.30;30.90;;;;;;10462676;28;20312;-72
2021/05/05 00:47:52;;;;;;;2.80;2.60;;;15.30;31.40;;;;;;10469710;28;20240;-72
2021/05/05 00:52:54;;;;;;;2.80;2.60;;;15.40;31.20;;;;;;10473831;28;20600;-73
2021/05/05 00:57:58;;;;;;;2.90;2.70;;;15.40;31.20;;;;;;10473645;28;20262;-73
2021/05/05 01:03:00;;;;;;;3.03;2.83;;;15.40;31.60;;;;;;10471392;28;20252;-72
2021/05/05 01:08:03;;;;;;;3.97;2.80;;;15.40;31.30;;;;;;10469589;28;20299;-72
2021/05/05 01:13:06;;;;;;;3.10;2.90;;;15.40;31.60;;;;;;10471380;28;20239;-73
2021/05/05 01:18:08;;;;;;;2.90;2.70;;;15.30;32.00;;;;;;10484917;28;20264;-73
2021/05/05 01:23:11;;;;;;;3.10;2.90;;;15.20;31.70;;;;;;10474407;28;20270;-72
2021/05/05 01:28:14;;;;;;;3.17;2.87;;;15.10;32.20;;;;;;10470315;28;20315;-72
2021/05/05 01:33:16;;;;;;;3.10;2.90;;;15.00;32.10;;;;;;10483671;28;20660;-73
2021/05/05 01:38:19;;;;;;;2.10;2.00;;;14.90;32.00;;;;;;10482035;28;20277;-72
2021/05/05 01:43:22;;;;;;;1.40;1.30;;;14.70;31.80;;;;;;10479961;28;20311;-73
2021/05/05 01:48:24;;;;;;;0.90;0.90;;;14.60;31.80;;;;;;10468718;28;20311;-73
2021/05/05 01:53:27;;;;;;;0.73;0.73;;;14.60;31.80;;;;;;10463932;28;20303;-73
2021/05/05 01:58:29;;;;;;;0.70;0.70;;;14.50;32.10;;;;;;10471665;28;20312;-72
2021/05/05 02:03:31;;;;;;;1.10;0.70;;;14.40;31.60;;;;;;10470697;28;20708;-72
2021/05/05 02:08:36;;;;;;;0.50;0.50;;;14.30;31.50;;;;;;10462912;28;20717;-72
2021/05/05 02:13:38;;;;;;;0.40;0.40;;;14.10;31.60;;;;;;10469412;28;20260;-72
2021/05/05 02:18:41;;;;;;;0.93;0.60;;;14.00;31.30;;;;;;10474515;28;20259;-72
2021/05/05 02:23:44;;;;;;;0.97;0.50;;;13.80;31.60;;;;;;10462166;28;20818;-72
2021/05/05 02:28:46;;;;;;;0.50;0.50;;;13.70;32.20;;;;;;10463984;28;20310;-73
2021/05/05 02:33:48;;;;;;;0.70;0.47;;;13.60;31.80;;;;;;10464289;28;20232;-73
2021/05/05 02:38:51;;;;;;;0.50;0.50;;;13.50;31.90;;;;;;10474274;28;20320;-73
2021/05/05 02:43:53;;;;;;;0.90;0.50;;;13.40;32.20;;;;;;10466446;28;20247;-73
2021/05/05 02:48:55;;;;;;;0.70;0.60;;;13.30;32.10;;;;;;10467811;28;20732;-73
2021/05/05 02:53:58;;;;;;;0.67;0.50;;;13.20;32.20;;;;;;10469565;28;20242;-70
2021/05/05 02:59:01;;;;;;;0.70;0.50;;;13.20;32.50;;;;;;10462379;28;20233;-70
2021/05/05 03:04:04;;;;;;;0.60;0.60;;;13.10;32.40;;;;;;10460557;28;20315;-69
2021/05/05 03:09:07;;;;;;;0.50;0.50;;;13.00;32.50;;;;;;10469134;28;20591;-69
2021/05/05 03:14:10;;;;;;;0.83;0.60;;;13.00;33.10;;;;;;10473163;28;20224;-68
2021/05/05 03:19:12;;;;;;;0.63;0.60;;;13.00;32.80;;;;;;10462530;28;20680;-70
2021/05/05 03:24:16;;;;;;;0.73;0.50;;;13.00;32.90;;;;;;10459063;28;20311;-75
2021/05/05 03:29:18;;;;;;;0.60;0.60;;;13.00;33.20;;;;;;10472676;28;20224;-74
2021/05/05 03:34:20;;;;;;;1.23;0.50;;;13.00;32.80;;;;;;10475166;28;20221;-74
2021/05/05 03:39:23;;;;;;;0.60;0.50;;;13.10;33.00;;;;;;10475477;28;20732;-74
2021/05/05 03:44:26;;;;;;;0.50;0.50;;;13.10;33.30;;;;;;10470752;28;20252;-75
2021/05/05 03:49:28;;;;;;;0.60;0.60;;;13.10;33.00;;;;;;10487244;28;20228;-75
2021/05/05 03:54:31;;;;;;;0.60;0.60;;;13.10;32.80;;;;;;10478266;28;20225;-75
2021/05/05 03:59:33;;;;;;;0.60;0.60;;;13.10;33.10;;;;;;10476428;28;20225;-75
2021/05/05 04:04:35;;;;;;;0.80;0.70;;;13.00;32.80;;;;;;10464982;28;20253;-75
2021/05/05 04:09:39;;;;;;;0.67;0.63;;;13.00;32.80;;;;;;10475606;28;20232;-75
2021/05/05 04:14:42;;;;;;;1.30;0.70;;;12.90;33.10;;;;;;10478674;28;20307;-75
2021/05/05 04:20:02;;;;;;;1.00;0.70;;;12.80;33.80;;;;;;10468570;28;20224;-75
2021/05/05 04:25:23;;;;;;;1.27;1.00;;;12.70;33.20;;;;;;10469181;28;20308;-75
2021/05/05 04:30:25;;;;;;;1.83;1.10;;;12.60;33.40;;;;;;10470758;28;20235;-69
2021/05/05 04:35:28;;;;;;;3.27;1.20;;;12.50;33.30;;;;;;10463723;28;20313;-68
2021/05/05 04:40:31;;;;;;;1.40;1.00;;;12.40;33.00;;;;;;10462771;28;20319;-69
2021/05/05 04:45:33;;;;;;;1.67;0.90;;;12.10;33.50;;;;;;10466068;28;20278;-69
2021/05/05 04:50:35;;;;;;;1.50;1.00;;;11.90;33.50;;;;;;10465076;28;20225;-69
2021/05/05 04:55:38;;;;;;;1.83;0.90;;;11.70;34.60;;;;;;10463348;28;20597;-69
2021/05/05 05:00:41;;;;;;;1.73;1.00;;;11.50;34.20;;;;;;10465370;28;20232;-69
2021/05/05 05:05:43;;;;;;;3.20;1.07;;;11.40;34.00;;;;;;10465458;28;20312;-69
2021/05/05 05:10:46;;;;;;;1.50;0.93;;;11.40;34.30;;;;;;10464560;28;20770;-69
2021/05/05 05:15:48;;;;;;;2.27;1.70;;;11.40;34.50;;;;;;10466827;28;20290;-69
2021/05/05 05:20:51;;;;;;;1.77;1.63;;;11.40;34.10;;;;;;10466599;28;20423;-69
2021/05/05 05:25:56;;;;;;;1.30;1.20;;;11.40;34.30;;;;;;10471020;28;20299;-69
2021/05/05 05:30:58;;;;;;;1.90;1.33;;;11.40;34.50;;;;;;10457147;28;20314;-69
2021/05/05 05:36:01;;;;;;;1.67;1.37;;;11.50;34.90;;;;;;10464958;28;20720;-69
2021/05/05 05:41:04;;;;;;;1.47;1.23;;;11.50;34.60;;;;;;10461356;28;20311;-69
2021/05/05 05:46:06;;;;;;;2.07;1.70;;;11.50;34.80;;;;;;10466683;28;20302;-70
2021/05/05 05:51:09;;;;;;;1.87;1.03;;;11.60;34.40;;;;;;10470838;28;20228;-70
2021/05/05 05:56:12;;;;;;;0.77;0.70;;;11.60;34.30;;;;;;10471612;28;20338;-70
2021/05/05 06:01:14;;;;;;;1.77;0.80;;;11.60;34.60;;;;;;10463826;28;20819;-70
2021/05/05 06:06:17;;;;;;;1.03;0.70;;;11.60;34.30;;;;;;10468768;28;20224;-70
2021/05/05 06:11:20;;;;;;;2.30;1.90;;;11.70;34.10;;;;;;10462018;28;20803;-69
2021/05/05 06:16:22;;;;;;;1.67;1.23;;;11.60;34.50;;;;;;10467094;28;20258;-70
2021/05/05 06:21:24;;;;;;;1.50;1.23;;;11.60;34.30;;;;;;10471495;28;20259;-69
2021/05/05 06:26:27;;;;;;;1.53;1.20;;;11.50;34.20;;;;;;10471152;28;20313;-69
2021/05/05 06:31:33;;;;;;;2.67;1.10;;;11.40;34.60;;;;;;10465299;28;20648;-70
2021/05/05 06:36:35;;;;;;;1.57;1.00;;;11.30;34.40;;;;;;10471707;28;20265;-70
2021/05/05 06:41:39;;;;;;;2.33;1.30;;;11.20;34.60;;;;;;10470034;28;20235;-69
2021/05/05 06:46:43;;;;;;;1.83;1.10;;;11.00;35.30;;;;;;10468544;28;20282;-69
2021/05/05 06:51:45;;;;;;;0.80;0.80;;;10.90;35.30;;;;;;10467832;28;20240;-68
2021/05/05 06:56:48;;;;;;;1.00;0.93;;;10.90;35.30;;;;;;10459954;28;20311;-69
2021/05/05 07:01:50;;;;;;;1.00;0.90;;;10.90;35.90;;;;;;10471199;28;20246;-72
2021/05/05 07:06:54;;;;;;;2.07;1.60;;;10.90;35.80;;;;;;10460905;28;20217;-72
2021/05/05 07:12:17;;;;;;;1.57;1.10;;;11.00;36.00;;;;;;10472922;28;20228;-70
2021/05/05 07:17:20;;;;;;;1.27;1.10;;;11.00;36.00;;;;;;10471000;28;20232;-70
2021/05/05 07:22:23;;;;;;;1.30;1.00;;;11.10;35.80;;;;;;10483649;28;20307;-72
2021/05/05 07:27:26;;;;;;;1.33;1.00;;;11.00;35.60;;;;;;10479828;28;20276;-71
2021/05/05 07:32:29;;;;;;;1.70;1.40;;;11.00;36.10;;;;;;10463882;28;20318;-71
2021/05/05 07:37:44;;;;;;;1.83;1.27;;;11.00;36.50;;;;;;10465073;28;20232;-71
2021/05/05 07:48:08;;;;;;;2.10;1.50;;;11.00;36.50;;;;;;10464182;28;20231;-73
2021/05/05 07:53:11;;;;;;;1.73;1.47;;;11.10;36.60;;;;;;10478297;28;20228;-71
2021/05/05 07:58:13;;;;;;;1.40;1.30;;;11.20;36.50;;;;;;10465813;28;20228;-71
2021/05/05 08:03:15;;;;;;;1.83;1.60;;;11.10;36.20;;;;;;10470812;28;20228;-71
2021/05/05 08:08:17;;;;;;;1.10;1.00;;;11.10;36.30;;;;;;10478913;28;20323;-71
2021/05/05 08:13:21;;;;;;;0.90;0.90;;;11.10;36.50;;;;;;10474186;28;20256;-72
2021/05/05 08:18:23;;;;;;;1.07;1.00;;;11.00;36.60;;;;;;10457416;28;20312;-71
2021/05/05 08:23:25;;;;;;;0.67;0.67;;;11.10;36.70;;;;;;10470664;28;20292;-70
2021/05/05 08:28:28;;;;;;;0.70;0.70;;;11.10;36.80;;;;;;10464617;28;20316;-71
2021/05/05 08:33:31;;;;;;;0.80;0.80;;;11.20;37.30;;;;;;10447696;28;20693;-71
2021/05/05 08:38:34;;;;;;;1.70;1.40;;;11.30;37.00;;;;;;10472566;28;20228;-70
2021/05/05 08:43:37;;;;;;;1.27;1.10;;;11.30;37.00;;;;;;10471969;28;20244;-72
2021/05/05 08:48:39;;;;;;;1.20;1.10;;;11.30;37.50;;;;;;10467012;28;20701;-70
2021/05/05 08:53:42;;;;;;;3.10;1.50;;;11.40;37.00;;;;;;10479522;28;20233;-71
2021/05/05 08:58:45;;;;;;;1.30;1.20;;;11.50;37.00;;;;;;10475085;28;20760;-71
2021/05/05 09:03:47;;;;;;;2.03;1.33;;;11.50;36.90;;;;;;10485364;28;20304;-70
2021/05/05 09:08:50;;;;;;;1.57;1.20;;;11.60;36.70;;;;;;10476271;28;20239;-69
2021/05/05 09:13:55;;;;;;;3.00;1.37;;;11.60;36.60;;;;;;10469023;28;20264;-69
2021/05/05 09:19:00;;;;;;;1.97;1.07;;;11.80;36.50;;;;;;10462475;28;20256;-69
2021/05/05 09:24:14;;;;;;;1.90;1.30;;;11.90;36.90;;;;;;10460457;28;20229;-70
2021/05/05 09:29:20;;;;;;;2.03;1.30;;;12.00;35.60;;;;;;10465492;28;20256;-69
2021/05/05 09:34:26;;;;;;;1.60;1.37;;;12.10;35.70;;;;;;10463589;28;20256;-69
2021/05/05 09:39:30;;;;;;;3.10;1.80;;;12.10;35.70;;;;;;10468819;28;20311;-70
2021/05/05 09:44:52;;;;;;;4.60;1.60;;;12.20;35.80;;;;;;10465131;28;20337;-70
2021/05/05 09:49:55;;;;;;;4.23;2.20;;;12.20;36.10;;;;;;10472302;28;20696;-70
2021/05/05 09:54:59;;;;;;;3.50;1.53;;;12.40;35.70;;;;;;10465462;28;20320;-70
2021/05/05 10:00:09;;;;;;;3.87;2.70;;;12.40;34.90;;;;;;10466309;28;20743;-71
2021/05/05 10:05:14;;;;;;;3.50;2.03;;;12.50;35.10;;;;;;10464599;28;20315;-70
2021/05/05 10:10:17;;;;;;;4.03;1.87;;;12.60;34.90;;;;;;10468149;28;20766;-70
2021/05/05 10:15:21;;;;;;;4.17;1.63;;;12.60;34.60;;;;;;10463519;28;20352;-70
2021/05/05 10:20:25;;;;;;;3.00;1.40;;;12.80;34.50;;;;;;10465185;28;20655;-70
2021/05/05 10:25:28;;;;;;;4.53;1.97;;;13.10;33.80;;;;;;10470349;28;20248;-70
2021/05/05 10:30:33;;;;;;;3.70;1.53;;;13.30;33.80;;;;;;10470695;28;20252;-70
2021/05/05 10:35:44;;;;;;;2.60;1.40;;;13.50;32.80;;;;;;10466398;28;20248;-70
2021/05/05 10:40:46;;;;;;;1.70;1.30;;;13.70;33.00;;;;;;10462732;28;20716;-71
2021/05/05 10:45:49;;;;;;;1.70;1.40;;;13.80;31.80;;;;;;10479195;28;20248;-71
2021/05/05 10:50:55;;;;;;;2.20;1.57;;;13.90;31.30;;;;;;10473938;28;20220;-72
2021/05/05 10:56:00;;;;;;;3.27;1.20;;;14.00;31.20;;;;;;10472046;28;20228;-71
2021/05/05 11:01:06;;;;;;;1.83;1.10;;;14.10;30.30;;;;;;10459140;28;20269;-72
2021/05/05 11:06:41;;;;;;;2.20;1.10;;;14.20;29.50;;;;;;10463949;28;20224;-72
2021/05/05 11:11:45;;;;;;;3.13;1.30;;;14.30;30.40;;;;;;10475270;28;20717;-69
2021/05/05 11:17:03;;;;;;;2.77;1.20;;;14.30;29.70;;;;;;10466635;28;20724;-74
2021/05/05 11:22:07;;;;;;;2.90;1.50;;;14.20;29.60;;;;;;10472026;28;20248;-70
2021/05/05 11:27:11;;;;;;;2.60;1.30;;;14.20;29.70;;;;;;10471752;28;20311;-72
2021/05/05 11:32:16;;;;;;;3.20;1.60;;;14.20;29.80;;;;;;10466762;28;20243;-73
2021/05/05 11:37:20;;;;;;;1.43;1.23;;;14.20;29.80;;;;;;10476947;28;20827;-71
2021/05/05 11:42:25;;;;;;;1.40;1.13;;;14.30;28.50;;;;;;10469501;28;20282;-72
2021/05/05 11:47:46;;;;;;;3.87;1.40;;;14.30;29.60;;;;;;10479358;28;20500;-72
2021/05/05 11:52:53;;;;;;;3.73;1.70;;;14.40;29.30;;;;;;10483899;28;20597;-71
2021/05/05 11:57:56;;;;;;;3.33;1.40;;;14.50;29.30;;;;;;10495388;28;20228;-71
2021/05/05 12:03:00;;;;;;;3.23;1.20;;;14.60;29.20;;;;;;10488232;28;20248;-72
2021/05/05 12:08:05;;;;;;;2.67;1.27;;;14.70;28.20;;;;;;10470085;28;20225;-73
2021/05/05 12:13:09;;;;;;;2.60;1.20;;;14.80;28.50;;;;;;10479721;28;20754;-72
2021/05/05 12:18:18;;;;;;;2.83;1.30;;;14.80;28.00;;;;;;10481464;28;20303;-72
2021/05/05 12:23:21;;;;;;;1.87;1.17;;;14.90;28.10;;;;;;10489045;28;20316;-72
2021/05/05 12:28:23;;;;;;;2.03;1.13;;;15.00;28.30;;;;;;10492651;28;20312;-72
2021/05/05 12:33:38;;;;;;;1.83;1.20;;;15.10;27.70;;;;;;10483190;28;20253;-73
2021/05/05 12:38:42;;;;;;;3.17;1.10;;;15.20;25.20;;;;;;10474398;28;20655;-73
2021/05/05 12:43:46;;;;;;;1.67;1.13;;;15.20;26.10;;;;;;10472815;28;20227;-72
2021/05/05 12:48:50;;;;;;;2.00;1.00;;;15.20;26.00;;;;;;10490042;28;20760;-72
2021/05/05 12:53:56;;;;;;;2.50;1.10;;;15.20;26.20;;;;;;10467047;28;20235;-73
2021/05/05 12:58:58;;;;;;;2.83;1.20;;;15.30;25.80;;;;;;10482193;28;20236;-73
2021/05/05 13:04:02;;;;;;;4.50;1.17;;;15.30;26.50;;;;;;10476841;28;20225;-73
2021/05/05 13:09:16;;;;;;;1.43;1.17;;;15.40;25.50;;;;;;10474737;28;20249;-72
2021/05/05 13:14:47;;;;;;;1.30;1.20;;;15.40;24.00;;;;;;10481724;28;20623;-73
2021/05/05 13:30:50;;;;;;;1.73;1.07;;;15.30;26.00;;;;;;10470575;28;20319;-72
2021/05/05 13:35:55;;;;;;;1.20;1.10;;;15.00;26.40;;;;;;10480277;28;20887;-73
2021/05/05 13:41:01;;;;;;;0.90;0.80;;;14.80;26.70;;;;;;10477295;28;20324;-73
2021/05/05 13:46:07;;;;;;;0.80;0.80;;;14.50;26.60;;;;;;10464937;28;20245;-73
2021/05/05 13:51:13;;;;;;;1.13;0.90;;;14.20;26.80;;;;;;10486138;28;20228;-73
2021/05/05 13:56:16;;;;;;;0.97;0.93;;;14.00;27.10;;;;;;10482827;28;20271;-73
2021/05/05 14:01:19;;;;;;;3.30;0.90;;;13.80;27.50;;;;;;10476207;28;20248;-73
2021/05/05 14:06:23;;;;;;;1.03;0.80;;;13.80;27.00;;;;;;10473486;28;20232;-73
2021/05/05 14:11:25;;;;;;;1.00;0.70;;;13.70;26.70;;;;;;10482905;28;20307;-73
2021/05/05 14:16:28;;;;;;;1.37;0.90;;;13.80;26.80;;;;;;10491596;28;20251;-72
2021/05/05 14:21:31;;;;;;;2.93;0.80;;;13.70;26.60;;;;;;10479123;28;20224;-73
2021/05/05 14:26:34;;;;;;;2.17;0.80;;;13.70;26.50;;;;;;10485111;28;20280;-72
2021/05/05 14:31:36;;;;;;;1.27;0.80;;;13.70;26.50;;;;;;10473409;28;20232;-72
2021/05/05 14:36:39;;;;;;;2.37;1.10;;;13.80;26.30;;;;;;10472717;28;20226;-72
2021/05/05 14:41:43;;;;;;;1.10;1.00;;;13.90;25.00;;;;;;10471852;28;20282;-72
2021/05/05 14:52:19;;;;;;;1.33;1.00;;;14.00;25.70;;;;;;10479042;28;20220;-72
2021/05/05 14:57:31;;;;;;;1.37;1.00;;;14.00;25.10;;;;;;10461895;28;20307;-72
2021/05/05 15:02:34;;;;;;;0.90;0.90;;;14.00;25.30;;;;;;10481046;28;20711;-72
2021/05/05 15:07:38;;;;;;;3.43;0.97;;;14.00;25.60;;;;;;10478658;28;20255;-72
2021/05/05 15:12:46;;;;;;;0.80;0.80;;;13.90;25.40;;;;;;10475623;28;20313;-72
2021/05/05 15:28:53;;;;;;;1.40;0.80;;;13.80;25.80;;;;;;10468315;28;20277;-72
2021/05/05 15:34:14;;;;;;;1.80;1.17;;;13.80;25.80;;;;;;10486436;28;20223;-72
2021/05/05 15:39:24;;;;;;;0.83;0.83;;;13.80;26.10;;;;;;10475325;28;20232;-72
2021/05/05 15:44:39;;;;;;;1.00;0.90;;;13.80;26.10;;;;;;10486271;28;20224;-72
2021/05/05 15:49:44;;;;;;;1.00;1.00;;;13.80;26.10;;;;;;10478837;28;20281;-72
2021/05/05 15:54:48;;;;;;;1.00;0.90;;;13.70;26.40;;;;;;10488374;28;20825;-72
2021/05/05 15:59:59;;;;;;;2.30;0.93;;;13.70;26.70;;;;;;10489505;28;20308;-72
2021/05/05 16:15:47;;;;;;;3.40;0.90;;;13.70;26.60;;;;;;10491803;28;20311;-73
2021/05/05 16:20:58;;;;;;;2.07;0.70;;;13.70;27.30;;;;;;10482801;28;20224;-72
2021/05/05 16:26:07;;;;;;;1.90;0.73;;;13.30;27.30;;;;;;10481774;28;20229;-73
2021/05/05 16:47:28;;;;;;;1.40;1.00;;;12.50;28.80;;;;;;10495030;28;20243;-72
2021/05/05 16:52:48;;;;;;;0.60;0.60;;;12.50;28.70;;;;;;10477110;28;20228;-72
2021/05/05 16:57:57;;;;;;;0.90;0.87;;;12.50;28.60;;;;;;10487488;28;20685;-72
2021/05/05 17:08:22;;;;;;;1.20;0.70;;;12.70;28.60;;;;;;10478425;28;20307;-72
2021/05/05 17:13:25;;;;;;;0.80;0.80;;;12.80;27.90;;;;;;10480627;28;20224;-72
2021/05/05 17:18:30;;;;;;;0.60;0.60;;;12.90;28.00;;;;;;10478778;28;20232;-72
2021/05/05 17:23:38;;;;;;;0.80;0.80;;;13.00;28.10;;;;;;10475944;28;20266;-72
2021/05/05 17:45:01;;;;;;;2.03;0.90;;;13.30;27.70;;;;;;10491843;28;20224;-73
2021/05/05 18:11:35;;;;;;;2.83;1.80;;;13.00;27.80;;;;;;10491710;28;20258;-73
2021/05/05 18:16:51;;;;;;;1.70;1.40;;;13.10;28.00;;;;;;10470688;28;20244;-72
2021/05/05 18:21:59;;;;;;;1.20;1.10;;;13.00;28.00;;;;;;10449746;28;20638;-73
2021/05/05 18:27:08;;;;;;;1.67;1.57;;;12.90;28.00;;;;;;10449671;28;20752;-74
2021/05/05 18:32:12;;;;;;;1.60;1.50;;;12.90;28.20;;;;;;10454924;28;20256;-73
2021/05/05 18:37:34;;;;;;;1.50;1.10;;;12.90;28.80;;;;;;10482596;28;20697;-73
2021/05/05 18:42:40;;;;;;;2.83;1.20;;;12.80;29.30;;;;;;10468380;28;20704;-72
2021/05/05 19:47:42;;;;;;;2.90;2.70;;;12.30;27.90;;;;;;10473478;28;20698;-73
2021/05/05 21:08:06;;;;;;;1.80;1.03;;;11.00;28.20;;;;;;10479425;28;20338;-71
2021/05/05 21:14:00;;;;;;;2.87;2.67;;;11.00;28.30;;;;;;10470933;28;20232;-71
2021/05/05 21:40:47;;;;;;;3.33;2.80;;;10.60;29.30;;;;;;10486176;28;20233;-71
2021/05/05 23:17:24;;;;;;;1.20;1.10;;;10.00;29.50;;;;;;10454240;28;20756;-71
2021/05/05 23:22:37;;;;;;;1.50;1.10;;;9.90;30.20;;;;;;10471887;28;20223;-71
2021/05/05 23:27:54;;;;;;;1.50;1.10;;;9.80;30.50;;;;;;10478971;28;20259;-71
2021/05/05 23:59:56;;;;;;;1.63;1.00;;;9.70;31.00;;;;;;10469255;28;20275;-71
